sensor_id;sensor_type;location;lat;lon;timestamp;temperature;humidity
21216;DHT22;10765;50.954;5.322;2023-12-14T00:01:48;8.80;99.90
21216;DHT22;10765;50.954;5.322;2023-12-14T00:04:15;8.80;99.90
21216;DHT22;10765;50.954;5.322;2023-12-14T00:06:42;8.90;99.90
21216;DHT22;10765;50.954;5.322;2023-12-14T00:09:08;8.90;99.90
21216;DHT22;10765;50.954;5.322;2023-12-14T00:11:37;8.80;99.90
21216;DHT22;10765;50.954;5.322;2023-12-14T00:14:04;8.90;99.90
21216;DHT22;10765;50.954;5.322;2023-12-14T00:16:31;8.90;99.90
21216;DHT22;10765;50.954;5.322;2023-12-14T00:19:00;9.00;99.90
21216;DHT22;10765;50.954;5.322;2023-12-14T00:21:27;9.00;99.90
21216;DHT22;10765;50.954;5.322;2023-12-14T00:23:54;9.00;99.90
21216;DHT22;10765;50.954;5.322;2023-12-14T00:26:20;9.00;99.90
21216;DHT22;10765;50.954;5.322;2023-12-14T00:28:47;8.90;99.90
21216;DHT22;10765;50.954;5.322;2023-12-14T00:31:14;8.90;99.90
21216;DHT22;10765;50.954;5.322;2023-12-14T00:33:42;8.80;99.90
21216;DHT22;10765;50.954;5.322;2023-12-14T00:36:17;8.70;99.90
21216;DHT22;10765;50.954;5.322;2023-12-14T00:38:44;8.70;99.90
21216;DHT22;10765;50.954;5.322;2023-12-14T00:41:11;8.70;99.90
21216;DHT22;10765;50.954;5.322;2023-12-14T00:43:38;8.80;99.90
21216;DHT22;10765;50.954;5.322;2023-12-14T00:46:05;8.80;99.90
21216;DHT22;10765;50.954;5.322;2023-12-14T00:48:32;8.60;99.90
21216;DHT22;10765;50.954;5.322;2023-12-14T00:50:59;8.60;99.90
21216;DHT22;10765;50.954;5.322;2023-12-14T00:53:27;8.50;99.90
21216;DHT22;10765;50.954;5.322;2023-12-14T00:55:54;8.50;99.90
21216;DHT22;10765;50.954;5.322;2023-12-14T00:58:21;8.50;99.90
21216;DHT22;10765;50.954;5.322;2023-12-14T01:00:48;8.40;99.90
21216;DHT22;10765;50.954;5.322;2023-12-14T01:03:15;8.40;99.90
21216;DHT22;10765;50.954;5.322;2023-12-14T01:05:42;8.40;99.90
21216;DHT22;10765;50.954;5.322;2023-12-14T01:08:08;8.40;99.90
21216;DHT22;10765;50.954;5.322;2023-12-14T01:10:37;8.40;99.90
21216;DHT22;10765;50.954;5.322;2023-12-14T01:13:04;8.40;99.90
21216;DHT22;10765;50.954;5.322;2023-12-14T01:15:30;8.40;99.90
21216;DHT22;10765;50.954;5.322;2023-12-14T01:17:57;8.40;99.90
21216;DHT22;10765;50.954;5.322;2023-12-14T01:20:24;8.30;99.90
21216;DHT22;10765;50.954;5.322;2023-12-14T01:22:51;8.30;99.90
21216;DHT22;10765;50.954;5.322;2023-12-14T01:25:18;8.30;99.90
21216;DHT22;10765;50.954;5.322;2023-12-14T01:27:46;8.30;99.90
21216;DHT22;10765;50.954;5.322;2023-12-14T01:30:13;8.40;99.90
21216;DHT22;10765;50.954;5.322;2023-12-14T01:32:40;8.40;99.90
21216;DHT22;10765;50.954;5.322;2023-12-14T01:35:07;8.30;99.90
21216;DHT22;10765;50.954;5.322;2023-12-14T01:37:34;8.50;99.90
21216;DHT22;10765;50.954;5.322;2023-12-14T01:40:01;8.50;99.90
21216;DHT22;10765;50.954;5.322;2023-12-14T01:42:28;8.60;99.90
21216;DHT22;10765;50.954;5.322;2023-12-14T01:44:56;8.70;99.90
21216;DHT22;10765;50.954;5.322;2023-12-14T01:47:23;8.70;99.90
21216;DHT22;10765;50.954;5.322;2023-12-14T01:49:50;8.60;99.90
21216;DHT22;10765;50.954;5.322;2023-12-14T01:52:17;8.60;99.90
21216;DHT22;10765;50.954;5.322;2023-12-14T01:54:44;8.60;99.90
21216;DHT22;10765;50.954;5.322;2023-12-14T01:57:11;8.60;99.90
21216;DHT22;10765;50.954;5.322;2023-12-14T01:59:38;8.60;99.90
21216;DHT22;10765;50.954;5.322;2023-12-14T02:02:06;8.60;99.90
21216;DHT22;10765;50.954;5.322;2023-12-14T02:04:33;8.50;99.90
21216;DHT22;10765;50.954;5.322;2023-12-14T02:07:00;8.60;99.90
21216;DHT22;10765;50.954;5.322;2023-12-14T02:09:27;8.50;99.90
21216;DHT22;10765;50.954;5.322;2023-12-14T02:11:53;8.40;99.90
21216;DHT22;10765;50.954;5.322;2023-12-14T02:14:22;8.30;99.90
21216;DHT22;10765;50.954;5.322;2023-12-14T02:16:49;8.20;99.90
21216;DHT22;10765;50.954;5.322;2023-12-14T02:19:17;8.10;99.90
21216;DHT22;10765;50.954;5.322;2023-12-14T02:21:44;8.00;99.90
21216;DHT22;10765;50.954;5.322;2023-12-14T02:24:15;8.00;99.90
21216;DHT22;10765;50.954;5.322;2023-12-14T02:26:42;7.90;99.90
21216;DHT22;10765;50.954;5.322;2023-12-14T02:29:09;7.90;99.90
21216;DHT22;10765;50.954;5.322;2023-12-14T02:31:36;7.90;99.90
21216;DHT22;10765;50.954;5.322;2023-12-14T02:34:03;7.70;99.90
21216;DHT22;10765;50.954;5.322;2023-12-14T02:36:29;7.60;99.90
21216;DHT22;10765;50.954;5.322;2023-12-14T02:38:56;7.50;99.90
21216;DHT22;10765;50.954;5.322;2023-12-14T02:41:25;7.50;99.90
21216;DHT22;10765;50.954;5.322;2023-12-14T02:43:51;7.40;99.90
21216;DHT22;10765;50.954;5.322;2023-12-14T02:46:18;7.40;99.90
21216;DHT22;10765;50.954;5.322;2023-12-14T02:48:45;7.40;99.90
21216;DHT22;10765;50.954;5.322;2023-12-14T02:51:13;7.40;99.90
21216;DHT22;10765;50.954;5.322;2023-12-14T02:53:40;7.30;99.90
21216;DHT22;10765;50.954;5.322;2023-12-14T02:56:09;7.20;99.90
21216;DHT22;10765;50.954;5.322;2023-12-14T02:58:38;7.30;99.90
21216;DHT22;10765;50.954;5.322;2023-12-14T03:01:05;7.30;99.90
21216;DHT22;10765;50.954;5.322;2023-12-14T03:03:32;7.30;99.90
21216;DHT22;10765;50.954;5.322;2023-12-14T03:05:59;7.30;99.90
21216;DHT22;10765;50.954;5.322;2023-12-14T03:08:26;7.30;99.90
21216;DHT22;10765;50.954;5.322;2023-12-14T03:10:52;7.40;99.90
21216;DHT22;10765;50.954;5.322;2023-12-14T03:13:19;7.30;99.90
21216;DHT22;10765;50.954;5.322;2023-12-14T03:15:48;7.20;99.90
21216;DHT22;10765;50.954;5.322;2023-12-14T03:18:15;7.10;99.90
21216;DHT22;10765;50.954;5.322;2023-12-14T03:20:42;7.00;99.90
21216;DHT22;10765;50.954;5.322;2023-12-14T03:23:09;7.10;99.90
21216;DHT22;10765;50.954;5.322;2023-12-14T03:25:35;7.00;99.90
21216;DHT22;10765;50.954;5.322;2023-12-14T03:28:03;6.90;99.90
21216;DHT22;10765;50.954;5.322;2023-12-14T03:30:29;6.90;99.90
21216;DHT22;10765;50.954;5.322;2023-12-14T03:32:58;7.00;99.90
21216;DHT22;10765;50.954;5.322;2023-12-14T03:35:24;6.90;99.90
21216;DHT22;10765;50.954;5.322;2023-12-14T03:37:51;6.90;99.90
21216;DHT22;10765;50.954;5.322;2023-12-14T03:40:18;7.00;99.90
21216;DHT22;10765;50.954;5.322;2023-12-14T03:42:45;7.00;99.90
21216;DHT22;10765;50.954;5.322;2023-12-14T03:45:12;7.00;99.90
21216;DHT22;10765;50.954;5.322;2023-12-14T03:47:39;7.00;99.90
21216;DHT22;10765;50.954;5.322;2023-12-14T03:50:11;6.90;99.90
21216;DHT22;10765;50.954;5.322;2023-12-14T03:52:38;7.00;99.90
21216;DHT22;10765;50.954;5.322;2023-12-14T03:55:06;6.90;99.90
21216;DHT22;10765;50.954;5.322;2023-12-14T03:57:34;6.80;99.90
21216;DHT22;10765;50.954;5.322;2023-12-14T04:00:01;6.70;99.90
21216;DHT22;10765;50.954;5.322;2023-12-14T04:02:29;6.60;99.90
21216;DHT22;10765;50.954;5.322;2023-12-14T04:04:56;6.60;99.90
21216;DHT22;10765;50.954;5.322;2023-12-14T04:07:24;6.70;99.90
21216;DHT22;10765;50.954;5.322;2023-12-14T04:09:51;6.70;99.90
21216;DHT22;10765;50.954;5.322;2023-12-14T04:12:18;6.60;99.90
21216;DHT22;10765;50.954;5.322;2023-12-14T04:14:46;6.70;99.90
21216;DHT22;10765;50.954;5.322;2023-12-14T04:17:12;6.70;99.90
21216;DHT22;10765;50.954;5.322;2023-12-14T04:19:39;6.70;99.90
21216;DHT22;10765;50.954;5.322;2023-12-14T04:22:06;6.60;99.90
21216;DHT22;10765;50.954;5.322;2023-12-14T04:24:35;6.50;99.90
21216;DHT22;10765;50.954;5.322;2023-12-14T04:27:02;6.50;99.90
21216;DHT22;10765;50.954;5.322;2023-12-14T04:29:28;6.50;99.90
21216;DHT22;10765;50.954;5.322;2023-12-14T04:31:56;6.40;99.90
21216;DHT22;10765;50.954;5.322;2023-12-14T04:34:23;6.50;99.90
21216;DHT22;10765;50.954;5.322;2023-12-14T04:36:49;6.50;99.90
21216;DHT22;10765;50.954;5.322;2023-12-14T04:39:18;6.40;99.90
21216;DHT22;10765;50.954;5.322;2023-12-14T04:41:46;6.40;99.90
21216;DHT22;10765;50.954;5.322;2023-12-14T04:44:13;6.50;99.90
21216;DHT22;10765;50.954;5.322;2023-12-14T04:46:40;6.50;99.90
21216;DHT22;10765;50.954;5.322;2023-12-14T04:49:07;6.50;99.90
21216;DHT22;10765;50.954;5.322;2023-12-14T04:51:34;6.40;99.90
21216;DHT22;10765;50.954;5.322;2023-12-14T04:54:01;6.40;99.90
21216;DHT22;10765;50.954;5.322;2023-12-14T04:56:28;6.40;99.90
21216;DHT22;10765;50.954;5.322;2023-12-14T04:58:57;6.40;99.90
21216;DHT22;10765;50.954;5.322;2023-12-14T05:01:24;6.30;99.90
21216;DHT22;10765;50.954;5.322;2023-12-14T05:03:52;6.30;99.90
21216;DHT22;10765;50.954;5.322;2023-12-14T05:06:19;6.30;99.90
21216;DHT22;10765;50.954;5.322;2023-12-14T05:08:46;6.30;99.90
21216;DHT22;10765;50.954;5.322;2023-12-14T05:11:13;6.30;99.90
21216;DHT22;10765;50.954;5.322;2023-12-14T05:13:40;6.30;99.90
21216;DHT22;10765;50.954;5.322;2023-12-14T05:16:13;6.40;99.90
21216;DHT22;10765;50.954;5.322;2023-12-14T05:18:40;6.40;99.90
21216;DHT22;10765;50.954;5.322;2023-12-14T05:21:06;6.30;99.90
21216;DHT22;10765;50.954;5.322;2023-12-14T05:23:33;6.40;99.90
21216;DHT22;10765;50.954;5.322;2023-12-14T05:26:00;6.50;99.90
21216;DHT22;10765;50.954;5.322;2023-12-14T05:28:27;6.50;99.90
21216;DHT22;10765;50.954;5.322;2023-12-14T05:30:54;6.40;99.90
21216;DHT22;10765;50.954;5.322;2023-12-14T05:33:22;6.40;99.90
21216;DHT22;10765;50.954;5.322;2023-12-14T05:35:49;6.40;99.90
21216;DHT22;10765;50.954;5.322;2023-12-14T05:38:16;6.40;99.90
21216;DHT22;10765;50.954;5.322;2023-12-14T05:40:43;6.40;99.90
21216;DHT22;10765;50.954;5.322;2023-12-14T05:43:10;6.40;99.90
21216;DHT22;10765;50.954;5.322;2023-12-14T05:45:37;6.40;99.90
21216;DHT22;10765;50.954;5.322;2023-12-14T05:48:05;6.40;99.90
21216;DHT22;10765;50.954;5.322;2023-12-14T05:50:33;6.40;99.90
21216;DHT22;10765;50.954;5.322;2023-12-14T05:53:00;6.50;99.90
21216;DHT22;10765;50.954;5.322;2023-12-14T05:55:27;6.40;99.90
21216;DHT22;10765;50.954;5.322;2023-12-14T05:57:53;6.30;99.90
21216;DHT22;10765;50.954;5.322;2023-12-14T06:00:22;6.30;99.90
21216;DHT22;10765;50.954;5.322;2023-12-14T06:02:49;6.20;99.90
21216;DHT22;10765;50.954;5.322;2023-12-14T06:05:16;6.20;99.90
21216;DHT22;10765;50.954;5.322;2023-12-14T06:07:44;6.20;99.90
21216;DHT22;10765;50.954;5.322;2023-12-14T06:10:11;6.20;99.90
21216;DHT22;10765;50.954;5.322;2023-12-14T06:12:38;6.10;99.90
21216;DHT22;10765;50.954;5.322;2023-12-14T06:15:07;6.10;99.90
21216;DHT22;10765;50.954;5.322;2023-12-14T06:17:34;6.10;99.90
21216;DHT22;10765;50.954;5.322;2023-12-14T06:20:03;6.10;99.90
21216;DHT22;10765;50.954;5.322;2023-12-14T06:22:31;6.10;99.90
21216;DHT22;10765;50.954;5.322;2023-12-14T06:24:59;6.20;99.90
21216;DHT22;10765;50.954;5.322;2023-12-14T06:27:26;6.10;99.90
21216;DHT22;10765;50.954;5.322;2023-12-14T06:29:53;6.10;99.90
21216;DHT22;10765;50.954;5.322;2023-12-14T06:32:20;6.10;99.90
21216;DHT22;10765;50.954;5.322;2023-12-14T06:34:47;6.10;99.90
21216;DHT22;10765;50.954;5.322;2023-12-14T06:37:14;6.10;99.90
21216;DHT22;10765;50.954;5.322;2023-12-14T06:39:41;6.20;99.90
21216;DHT22;10765;50.954;5.322;2023-12-14T06:42:09;6.10;99.90
21216;DHT22;10765;50.954;5.322;2023-12-14T06:44:37;6.10;99.90
21216;DHT22;10765;50.954;5.322;2023-12-14T06:47:04;6.20;99.90
21216;DHT22;10765;50.954;5.322;2023-12-14T06:49:31;6.20;99.90
21216;DHT22;10765;50.954;5.322;2023-12-14T06:51:58;6.10;99.90
21216;DHT22;10765;50.954;5.322;2023-12-14T06:54:25;6.10;99.90
21216;DHT22;10765;50.954;5.322;2023-12-14T06:56:52;6.00;99.90
21216;DHT22;10765;50.954;5.322;2023-12-14T06:59:20;6.00;99.90
21216;DHT22;10765;50.954;5.322;2023-12-14T07:01:49;6.00;99.90
21216;DHT22;10765;50.954;5.322;2023-12-14T07:04:16;6.00;99.90
21216;DHT22;10765;50.954;5.322;2023-12-14T07:06:50;6.00;99.90
21216;DHT22;10765;50.954;5.322;2023-12-14T07:09:17;6.00;99.90
21216;DHT22;10765;50.954;5.322;2023-12-14T07:11:43;6.00;99.90
21216;DHT22;10765;50.954;5.322;2023-12-14T07:14:11;6.10;99.90
21216;DHT22;10765;50.954;5.322;2023-12-14T07:16:39;6.10;99.90
21216;DHT22;10765;50.954;5.322;2023-12-14T07:19:06;6.10;99.90
21216;DHT22;10765;50.954;5.322;2023-12-14T07:21:33;6.10;99.90
21216;DHT22;10765;50.954;5.322;2023-12-14T07:24:00;6.00;99.90
21216;DHT22;10765;50.954;5.322;2023-12-14T07:26:27;6.10;99.90
21216;DHT22;10765;50.954;5.322;2023-12-14T07:28:54;6.10;99.90
21216;DHT22;10765;50.954;5.322;2023-12-14T07:31:21;6.20;99.90
21216;DHT22;10765;50.954;5.322;2023-12-14T07:33:49;6.20;99.90
21216;DHT22;10765;50.954;5.322;2023-12-14T07:36:16;6.20;99.90
21216;DHT22;10765;50.954;5.322;2023-12-14T07:38:43;6.20;99.90
21216;DHT22;10765;50.954;5.322;2023-12-14T07:41:09;6.20;99.90
21216;DHT22;10765;50.954;5.322;2023-12-14T07:43:36;6.20;99.90
21216;DHT22;10765;50.954;5.322;2023-12-14T07:46:03;6.20;99.90
21216;DHT22;10765;50.954;5.322;2023-12-14T07:48:30;6.10;99.90
21216;DHT22;10765;50.954;5.322;2023-12-14T07:50:58;6.10;99.90
21216;DHT22;10765;50.954;5.322;2023-12-14T07:53:25;6.10;99.90
21216;DHT22;10765;50.954;5.322;2023-12-14T07:55:52;6.10;99.90
21216;DHT22;10765;50.954;5.322;2023-12-14T07:58:19;6.10;99.90
21216;DHT22;10765;50.954;5.322;2023-12-14T08:00:47;6.00;99.90
21216;DHT22;10765;50.954;5.322;2023-12-14T08:03:14;6.00;99.90
21216;DHT22;10765;50.954;5.322;2023-12-14T08:05:41;6.00;99.90
21216;DHT22;10765;50.954;5.322;2023-12-14T08:08:09;6.00;99.90
21216;DHT22;10765;50.954;5.322;2023-12-14T08:10:36;5.90;99.90
21216;DHT22;10765;50.954;5.322;2023-12-14T08:13:03;5.90;99.90
21216;DHT22;10765;50.954;5.322;2023-12-14T08:15:30;5.90;99.90
21216;DHT22;10765;50.954;5.322;2023-12-14T08:17:56;5.90;99.90
21216;DHT22;10765;50.954;5.322;2023-12-14T08:20:23;5.90;99.90
21216;DHT22;10765;50.954;5.322;2023-12-14T08:22:50;5.90;99.90
21216;DHT22;10765;50.954;5.322;2023-12-14T08:25:19;5.90;99.90
21216;DHT22;10765;50.954;5.322;2023-12-14T08:27:46;5.80;99.90
21216;DHT22;10765;50.954;5.322;2023-12-14T08:30:13;5.80;99.90
21216;DHT22;10765;50.954;5.322;2023-12-14T08:32:40;5.80;99.90
21216;DHT22;10765;50.954;5.322;2023-12-14T08:35:08;5.80;99.90
21216;DHT22;10765;50.954;5.322;2023-12-14T08:37:35;5.80;99.90
21216;DHT22;10765;50.954;5.322;2023-12-14T08:40:02;5.90;99.90
21216;DHT22;10765;50.954;5.322;2023-12-14T08:42:31;5.80;99.90
21216;DHT22;10765;50.954;5.322;2023-12-14T08:44:58;5.80;99.90
21216;DHT22;10765;50.954;5.322;2023-12-14T08:47:25;5.90;99.90
21216;DHT22;10765;50.954;5.322;2023-12-14T08:49:52;5.90;99.90
21216;DHT22;10765;50.954;5.322;2023-12-14T08:52:19;6.00;99.90
21216;DHT22;10765;50.954;5.322;2023-12-14T08:54:52;6.10;99.90
21216;DHT22;10765;50.954;5.322;2023-12-14T08:57:18;6.00;99.90
21216;DHT22;10765;50.954;5.322;2023-12-14T08:59:47;6.10;99.90
21216;DHT22;10765;50.954;5.322;2023-12-14T09:02:14;6.10;99.90
21216;DHT22;10765;50.954;5.322;2023-12-14T09:04:41;6.10;99.90
21216;DHT22;10765;50.954;5.322;2023-12-14T09:07:08;6.20;99.90
21216;DHT22;10765;50.954;5.322;2023-12-14T09:09:35;6.20;99.90
21216;DHT22;10765;50.954;5.322;2023-12-14T09:12:02;6.10;99.90
21216;DHT22;10765;50.954;5.322;2023-12-14T09:14:30;6.10;99.90
21216;DHT22;10765;50.954;5.322;2023-12-14T09:16:58;6.10;99.90
21216;DHT22;10765;50.954;5.322;2023-12-14T09:19:25;6.20;99.90
21216;DHT22;10765;50.954;5.322;2023-12-14T09:21:52;6.30;99.90
21216;DHT22;10765;50.954;5.322;2023-12-14T09:24:19;6.50;99.90
21216;DHT22;10765;50.954;5.322;2023-12-14T09:26:46;6.60;99.90
21216;DHT22;10765;50.954;5.322;2023-12-14T09:29:13;6.70;99.90
21216;DHT22;10765;50.954;5.322;2023-12-14T09:31:41;6.80;99.90
21216;DHT22;10765;50.954;5.322;2023-12-14T09:34:10;6.80;99.90
21216;DHT22;10765;50.954;5.322;2023-12-14T09:36:37;6.70;99.90
21216;DHT22;10765;50.954;5.322;2023-12-14T09:39:04;7.00;99.90
21216;DHT22;10765;50.954;5.322;2023-12-14T09:41:36;7.30;99.90
21216;DHT22;10765;50.954;5.322;2023-12-14T09:44:03;7.50;99.90
21216;DHT22;10765;50.954;5.322;2023-12-14T09:46:31;7.40;99.90
21216;DHT22;10765;50.954;5.322;2023-12-14T09:49:00;7.30;99.90
21216;DHT22;10765;50.954;5.322;2023-12-14T09:51:29;7.40;99.90
21216;DHT22;10765;50.954;5.322;2023-12-14T09:53:56;7.40;99.90
21216;DHT22;10765;50.954;5.322;2023-12-14T09:56:24;7.30;99.90
21216;DHT22;10765;50.954;5.322;2023-12-14T09:58:51;7.30;99.90
21216;DHT22;10765;50.954;5.322;2023-12-14T10:01:24;7.40;99.90
21216;DHT22;10765;50.954;5.322;2023-12-14T10:04:07;7.50;99.90
21216;DHT22;10765;50.954;5.322;2023-12-14T10:06:35;7.30;99.90
21216;DHT22;10765;50.954;5.322;2023-12-14T10:09:05;7.30;99.90
21216;DHT22;10765;50.954;5.322;2023-12-14T10:11:35;7.30;99.90
21216;DHT22;10765;50.954;5.322;2023-12-14T10:14:02;7.40;99.90
21216;DHT22;10765;50.954;5.322;2023-12-14T10:16:30;7.20;99.90
21216;DHT22;10765;50.954;5.322;2023-12-14T10:18:58;6.90;99.90
21216;DHT22;10765;50.954;5.322;2023-12-14T10:21:25;6.90;99.90
21216;DHT22;10765;50.954;5.322;2023-12-14T10:23:55;6.90;99.90
21216;DHT22;10765;50.954;5.322;2023-12-14T10:26:22;6.90;99.90
21216;DHT22;10765;50.954;5.322;2023-12-14T10:28:51;6.80;99.90
21216;DHT22;10765;50.954;5.322;2023-12-14T10:31:18;6.80;99.90
21216;DHT22;10765;50.954;5.322;2023-12-14T10:33:47;6.70;99.90
21216;DHT22;10765;50.954;5.322;2023-12-14T10:36:15;6.60;99.90
21216;DHT22;10765;50.954;5.322;2023-12-14T10:38:47;6.60;99.90
21216;DHT22;10765;50.954;5.322;2023-12-14T10:41:17;6.60;99.90
21216;DHT22;10765;50.954;5.322;2023-12-14T10:43:44;6.70;99.90
21216;DHT22;10765;50.954;5.322;2023-12-14T10:46:14;6.90;99.90
21216;DHT22;10765;50.954;5.322;2023-12-14T10:48:42;7.10;99.90
21216;DHT22;10765;50.954;5.322;2023-12-14T10:51:11;7.40;99.90
21216;DHT22;10765;50.954;5.322;2023-12-14T10:53:39;7.70;65.50
21216;DHT22;10765;50.954;5.322;2023-12-14T10:56:07;8.00;47.40
21216;DHT22;10765;50.954;5.322;2023-12-14T10:58:49;8.20;1.00
21216;DHT22;10765;50.954;5.322;2023-12-14T11:01:20;8.10;1.00
21216;DHT22;10765;50.954;5.322;2023-12-14T11:03:47;8.10;1.00
21216;DHT22;10765;50.954;5.322;2023-12-14T11:06:28;8.20;1.00
21216;DHT22;10765;50.954;5.322;2023-12-14T11:08:57;8.10;99.90
21216;DHT22;10765;50.954;5.322;2023-12-14T11:11:28;8.10;99.90
21216;DHT22;10765;50.954;5.322;2023-12-14T11:13:56;8.00;99.90
21216;DHT22;10765;50.954;5.322;2023-12-14T11:16:26;8.00;99.90
21216;DHT22;10765;50.954;5.322;2023-12-14T11:19:24;8.10;99.90
21216;DHT22;10765;50.954;5.322;2023-12-14T11:22:23;8.20;99.90
21216;DHT22;10765;50.954;5.322;2023-12-14T11:24:54;8.10;99.90
21216;DHT22;10765;50.954;5.322;2023-12-14T11:27:29;7.80;99.90
21216;DHT22;10765;50.954;5.322;2023-12-14T11:29:57;7.60;99.90
21216;DHT22;10765;50.954;5.322;2023-12-14T11:32:26;7.70;99.90
21216;DHT22;10765;50.954;5.322;2023-12-14T11:34:53;7.70;99.90
21216;DHT22;10765;50.954;5.322;2023-12-14T11:37:21;7.70;99.90
21216;DHT22;10765;50.954;5.322;2023-12-14T11:39:50;7.70;99.90
21216;DHT22;10765;50.954;5.322;2023-12-14T11:42:19;7.90;99.90
21216;DHT22;10765;50.954;5.322;2023-12-14T11:44:45;7.90;99.90
21216;DHT22;10765;50.954;5.322;2023-12-14T11:47:14;7.80;99.90
21216;DHT22;10765;50.954;5.322;2023-12-14T11:49:41;7.70;99.90
21216;DHT22;10765;50.954;5.322;2023-12-14T11:52:08;7.80;99.90
21216;DHT22;10765;50.954;5.322;2023-12-14T11:54:37;7.80;99.90
21216;DHT22;10765;50.954;5.322;2023-12-14T11:57:04;7.80;99.90
21216;DHT22;10765;50.954;5.322;2023-12-14T11:59:35;7.90;99.90
21216;DHT22;10765;50.954;5.322;2023-12-14T12:02:02;7.70;99.90
21216;DHT22;10765;50.954;5.322;2023-12-14T12:04:30;7.60;99.90
21216;DHT22;10765;50.954;5.322;2023-12-14T12:07:01;7.60;99.90
21216;DHT22;10765;50.954;5.322;2023-12-14T12:09:36;7.40;99.90
21216;DHT22;10765;50.954;5.322;2023-12-14T12:12:06;7.30;99.90
21216;DHT22;10765;50.954;5.322;2023-12-14T12:14:33;7.30;99.90
21216;DHT22;10765;50.954;5.322;2023-12-14T12:17:00;7.40;99.90
21216;DHT22;10765;50.954;5.322;2023-12-14T12:19:27;7.40;99.90
21216;DHT22;10765;50.954;5.322;2023-12-14T12:21:55;7.50;99.90
21216;DHT22;10765;50.954;5.322;2023-12-14T12:24:22;7.90;99.90
21216;DHT22;10765;50.954;5.322;2023-12-14T12:26:49;7.80;99.90
21216;DHT22;10765;50.954;5.322;2023-12-14T12:29:16;7.80;99.90
21216;DHT22;10765;50.954;5.322;2023-12-14T12:31:43;8.20;99.90
21216;DHT22;10765;50.954;5.322;2023-12-14T12:34:11;8.30;99.90
21216;DHT22;10765;50.954;5.322;2023-12-14T12:36:38;8.20;99.90
21216;DHT22;10765;50.954;5.322;2023-12-14T12:39:06;8.30;99.90
21216;DHT22;10765;50.954;5.322;2023-12-14T12:41:34;8.40;99.90
21216;DHT22;10765;50.954;5.322;2023-12-14T12:44:03;8.10;97.00
21216;DHT22;10765;50.954;5.322;2023-12-14T12:46:32;8.00;99.90
21216;DHT22;10765;50.954;5.322;2023-12-14T12:49:00;7.80;99.90
21216;DHT22;10765;50.954;5.322;2023-12-14T12:51:26;7.50;99.90
21216;DHT22;10765;50.954;5.322;2023-12-14T12:53:54;7.50;99.90
21216;DHT22;10765;50.954;5.322;2023-12-14T12:56:22;7.40;99.90
21216;DHT22;10765;50.954;5.322;2023-12-14T12:58:49;7.50;99.90
21216;DHT22;10765;50.954;5.322;2023-12-14T13:01:19;7.60;99.90
21216;DHT22;10765;50.954;5.322;2023-12-14T13:03:46;7.60;99.90
21216;DHT22;10765;50.954;5.322;2023-12-14T13:06:13;7.60;99.90
21216;DHT22;10765;50.954;5.322;2023-12-14T13:08:40;7.70;99.90
21216;DHT22;10765;50.954;5.322;2023-12-14T13:11:07;7.80;99.90
21216;DHT22;10765;50.954;5.322;2023-12-14T13:13:35;7.70;99.90
21216;DHT22;10765;50.954;5.322;2023-12-14T13:16:02;7.70;99.90
21216;DHT22;10765;50.954;5.322;2023-12-14T13:18:29;7.80;99.90
21216;DHT22;10765;50.954;5.322;2023-12-14T13:20:56;7.70;99.90
21216;DHT22;10765;50.954;5.322;2023-12-14T13:23:23;7.70;99.90
21216;DHT22;10765;50.954;5.322;2023-12-14T13:25:50;7.80;99.90
21216;DHT22;10765;50.954;5.322;2023-12-14T13:28:17;7.80;99.90
21216;DHT22;10765;50.954;5.322;2023-12-14T13:30:45;7.70;99.90
21216;DHT22;10765;50.954;5.322;2023-12-14T13:33:12;7.80;99.90
21216;DHT22;10765;50.954;5.322;2023-12-14T13:35:39;7.80;99.90
21216;DHT22;10765;50.954;5.322;2023-12-14T13:38:06;7.90;99.90
21216;DHT22;10765;50.954;5.322;2023-12-14T13:40:33;7.90;99.90
21216;DHT22;10765;50.954;5.322;2023-12-14T13:42:59;7.90;99.90
21216;DHT22;10765;50.954;5.322;2023-12-14T13:45:35;8.00;99.90
21216;DHT22;10765;50.954;5.322;2023-12-14T13:48:04;8.00;99.90
21216;DHT22;10765;50.954;5.322;2023-12-14T13:50:31;8.00;99.90
21216;DHT22;10765;50.954;5.322;2023-12-14T13:52:58;8.00;99.90
21216;DHT22;10765;50.954;5.322;2023-12-14T13:55:25;8.10;99.90
21216;DHT22;10765;50.954;5.322;2023-12-14T13:57:52;8.00;99.90
21216;DHT22;10765;50.954;5.322;2023-12-14T14:00:23;8.00;99.90
21216;DHT22;10765;50.954;5.322;2023-12-14T14:02:50;7.90;99.90
21216;DHT22;10765;50.954;5.322;2023-12-14T14:05:18;8.00;99.90
21216;DHT22;10765;50.954;5.322;2023-12-14T14:07:45;8.10;99.90
21216;DHT22;10765;50.954;5.322;2023-12-14T14:10:13;7.90;99.90
21216;DHT22;10765;50.954;5.322;2023-12-14T14:12:40;7.70;99.90
21216;DHT22;10765;50.954;5.322;2023-12-14T14:15:08;7.70;99.90
21216;DHT22;10765;50.954;5.322;2023-12-14T14:17:35;7.90;99.90
21216;DHT22;10765;50.954;5.322;2023-12-14T14:20:02;7.80;99.90
21216;DHT22;10765;50.954;5.322;2023-12-14T14:22:31;7.90;99.90
21216;DHT22;10765;50.954;5.322;2023-12-14T14:24:58;7.80;99.90
21216;DHT22;10765;50.954;5.322;2023-12-14T14:27:25;7.60;1.00
21216;DHT22;10765;50.954;5.322;2023-12-14T14:29:52;7.50;1.80
21216;DHT22;10765;50.954;5.322;2023-12-14T14:32:21;7.60;1.00
21216;DHT22;10765;50.954;5.322;2023-12-14T14:34:48;7.60;1.00
21216;DHT22;10765;50.954;5.322;2023-12-14T14:37:15;7.70;1.00
21216;DHT22;10765;50.954;5.322;2023-12-14T14:39:43;7.70;1.00
21216;DHT22;10765;50.954;5.322;2023-12-14T14:42:10;7.50;1.00
21216;DHT22;10765;50.954;5.322;2023-12-14T14:44:37;7.60;1.00
21216;DHT22;10765;50.954;5.322;2023-12-14T14:47:04;7.50;1.00
21216;DHT22;10765;50.954;5.322;2023-12-14T14:49:31;7.60;1.00
21216;DHT22;10765;50.954;5.322;2023-12-14T14:51:58;7.70;1.00
21216;DHT22;10765;50.954;5.322;2023-12-14T14:54:25;7.70;1.00
21216;DHT22;10765;50.954;5.322;2023-12-14T14:56:53;7.70;1.00
21216;DHT22;10765;50.954;5.322;2023-12-14T14:59:20;7.80;1.00
21216;DHT22;10765;50.954;5.322;2023-12-14T15:01:48;7.70;1.00
21216;DHT22;10765;50.954;5.322;2023-12-14T15:04:16;7.70;1.00
21216;DHT22;10765;50.954;5.322;2023-12-14T15:06:43;7.90;1.00
21216;DHT22;10765;50.954;5.322;2023-12-14T15:09:10;8.00;1.00
21216;DHT22;10765;50.954;5.322;2023-12-14T15:11:38;7.90;1.00
21216;DHT22;10765;50.954;5.322;2023-12-14T15:14:06;7.80;1.00
21216;DHT22;10765;50.954;5.322;2023-12-14T15:16:33;7.90;1.00
21216;DHT22;10765;50.954;5.322;2023-12-14T15:19:01;8.10;1.00
21216;DHT22;10765;50.954;5.322;2023-12-14T15:21:28;8.20;1.00
21216;DHT22;10765;50.954;5.322;2023-12-14T15:23:55;8.20;1.00
21216;DHT22;10765;50.954;5.322;2023-12-14T15:26:22;8.00;1.00
21216;DHT22;10765;50.954;5.322;2023-12-14T15:28:49;7.80;1.00
21216;DHT22;10765;50.954;5.322;2023-12-14T15:31:17;7.70;1.00
21216;DHT22;10765;50.954;5.322;2023-12-14T15:33:44;7.60;1.00
21216;DHT22;10765;50.954;5.322;2023-12-14T15:36:11;7.80;1.00
21216;DHT22;10765;50.954;5.322;2023-12-14T15:38:38;7.70;1.00
21216;DHT22;10765;50.954;5.322;2023-12-14T15:41:06;7.90;1.00
21216;DHT22;10765;50.954;5.322;2023-12-14T15:43:33;7.80;1.00
21216;DHT22;10765;50.954;5.322;2023-12-14T15:46:00;7.60;1.00
21216;DHT22;10765;50.954;5.322;2023-12-14T15:48:28;7.60;99.90
21216;DHT22;10765;50.954;5.322;2023-12-14T15:50:55;7.40;99.90